Flight Track Log - Related Links

Times and Time Zones

All times are in EDT time to prevent confusion due to time zone crossing. See the AIP5403 flight status page for this flight to view local times or setup timezone preferences in your user account.

Time Position Orientation Groundspeed Altitude Reporting Facility
EDT Latitude Longitude Course Direction KTS MPH feet Rate Location/Type
Wed 11:32:39 PM 43.5733 -96.7681 277° West 123 142 3,000  Level Minneapolis Center
Wed 11:33:40 PM 43.5792 -96.8303 277° West 135 155 5,800 2,410 Climbing Minneapolis Center
Wed 11:34:41 PM 43.5847 -96.8808 279° West 135 155 7,900 2,066 Climbing Minneapolis Center
Wed 11:35:42 PM 43.5925 -96.9331 282° West 135 155 10,000 1,918 Climbing Minneapolis Center
Wed 11:36:43 PM 43.5997 -96.9875 280° West 140 161 11,800 1,770 Climbing Minneapolis Center
Wed 11:37:44 PM 43.6067 -97.0453 279° West 148 170 13,600 1,672 Climbing Minneapolis Center
Wed 11:38:45 PM 43.6094 -97.1028 274° West 149 171 15,200 1,230 Climbing Minneapolis Center
Wed 11:39:46 PM 43.6125 -97.1639 274° West 156 180 16,100 393 Climbing Minneapolis Center
Wed 11:40:47 PM 43.6247 -97.2386 283° West 193 222 16,000 -98 Descending Minneapolis Center
Wed 11:41:48 PM 43.6417 -97.3200 286° West 213 245 15,900 -50 Descending Minneapolis Center
Wed 11:42:48 PM 43.6514 -97.4031 279° West 220 253 15,900 99 Level Minneapolis Center
Wed 11:43:49 PM 43.6625 -97.4814 281° West 212 244 16,100 98 Climbing Minneapolis Center
Wed 11:44:50 PM 43.6731 -97.5622 280° West 212 244 16,100  Level Minneapolis Center
Wed 11:45:51 PM 43.6844 -97.6431 281° West 213 245 16,100 -49 Level Minneapolis Center
Wed 11:46:52 PM 43.6978 -97.7208 283° West 212 244 16,000 -49 Descending Minneapolis Center
Wed 11:47:53 PM 43.7008 -97.8039 273° West 213 245 16,000 49 Level Minneapolis Center
Wed 11:48:54 PM 43.7072 -97.9053 275° West 219 252 16,100  Climbing Minneapolis Center
Wed 11:49:55 PM 43.7164 -97.9853 279° West 216 249 16,000 -50 Descending Minneapolis Center
Wed 11:50:55 PM 43.7283 -98.0675 281° West 216 249 16,000 50 Level Minneapolis Center
Wed 11:51:56 PM 43.7319 -98.1528 273° West 218 251 16,100  Climbing Minneapolis Center
Wed 11:52:57 PM 43.7322 -98.2381 270° West 220 253 16,000 -98 Descending Minneapolis Center
Wed 11:53:58 PM 43.7433 -98.3206 281° West 220 253 15,900  Descending Minneapolis Center
Wed 11:54:59 PM 43.7544 -98.4044 280° West 220 253 16,000  Climbing Minneapolis Center
Wed 11:56:00 PM 43.7503 -98.4903 266° West 221 254 15,900 -99 Descending Minneapolis Center
Wed 11:57:00 PM 43.7656 -98.5714 285° West 221 254 15,800  Descending Minneapolis Center
Wed 11:58:01 PM 43.7783 -98.6522 282° West 220 253 15,900 49 Climbing Minneapolis Center
Wed 11:59:02 PM 43.7986 -98.7400 288° West 218 251 15,900  Level Minneapolis Center
Thu 12:00:03 AM 43.7956 -98.8264 267° West 220 253 15,900  Level Minneapolis Center
Thu 12:01:04 AM 43.7933 -98.9131 268° West 223 257 15,900  Level Minneapolis Center
Thu 12:02:04 AM 43.8039 -98.9975 280° West 223 257 15,900 -50 Level Minneapolis Center
Thu 12:03:05 AM 43.8039 -99.0839 270° West 226 260 15,800  Descending Minneapolis Center
Thu 12:04:06 AM 43.8119 -99.1697 277° West 226 260 15,900 49 Climbing Minneapolis Center
Thu 12:05:07 AM 43.8236 -99.2525 281° West 225 259 15,900 49 Level Minneapolis Center
Thu 12:06:08 AM 43.8317 -99.3367 278° West 224 258 16,000 50 Climbing Minneapolis Center
Thu 12:07:08 AM 43.8428 -99.4200 281° West 224 258 16,000 50 Level Minneapolis Center
Thu 12:08:09 AM 43.8503 -99.5047 277° West 223 257 16,100 98 Climbing Minneapolis Center
Thu 12:09:10 AM 43.8453 -99.5917 265° West 223 257 16,200  Climbing Minneapolis Center
Thu 12:10:10 AM 43.8497 -99.6794 274° West 225 259 16,100 -99 Descending Minneapolis Center
Thu 12:11:11 AM 43.8569 -99.7656 277° West 225 259 16,000 -49 Descending Minneapolis Center
Thu 12:12:12 AM 43.8625 -99.8522 275° West 225 259 16,000  Level Minneapolis Center
Thu 12:13:12 AM 43.8672 -99.9392 274° West 225 259 16,000  Level Minneapolis Center
Thu 12:14:13 AM 43.8622 -100.0272 266° West 227 261 16,000  Level Minneapolis Center
Thu 12:15:14 AM 43.8564 -100.1119 265° West 230 265 16,000  Level Minneapolis Center
Thu 12:16:14 AM 43.8689 -100.1944 282° West 224 258 16,000 50 Level Minneapolis Center
Thu 12:17:15 AM 43.8831 -100.2786 283° West 224 258 16,100  Climbing Minneapolis Center
Thu 12:18:16 AM 43.8958 -100.3797 280° West 224 258 16,000 -49 Descending Minneapolis Center
Thu 12:19:17 AM 43.8983 -100.4686 272° West 225 259 16,000  Level Minneapolis Center
Thu 12:20:17 AM 43.9003 -100.5564 272° West 225 259 16,000 -50 Level Minneapolis Center
Thu 12:21:18 AM 43.9086 -100.6431 278° West 225 259 15,900  Descending Minneapolis Center
Thu 12:22:19 AM 43.9111 -100.7325 272° West 226 260 16,000 50 Climbing Minneapolis Center
Thu 12:23:19 AM 43.9267 -100.8167 284° West 229 264 16,000  Level Minneapolis Center
Thu 12:24:20 AM 43.9292 -100.9025 272° West 229 264 16,000  Level Minneapolis Center
Thu 12:25:20 AM 43.9389 -100.9883 279° West 228 262 16,000 50 Level Minneapolis Center
Thu 12:26:21 AM 43.9453 -101.0750 276° West 228 262 16,100  Climbing Minneapolis Center
Thu 12:27:21 AM 43.9536 -101.1600 278° West 228 262 16,000 -50 Descending Minneapolis Center
Thu 12:28:22 AM 43.9619 -101.2486 277° West 228 262 16,000  Level Minneapolis Center
Thu 12:29:22 AM 43.9650 -101.3378 273° West 228 262 16,000 52 Level Minneapolis Center
Thu 12:30:18 AM 43.9533 -101.4028 256° West 229 264 16,100 52 Climbing Denver Center
Thu 12:31:17 AM 43.9489 -101.5089 267° West 228 262 16,100  Level Denver Center
Thu 12:32:19 AM 43.9492 -101.5983 270° West 229 264 16,100 48 Level Denver Center
Thu 12:33:21 AM 43.9553 -101.6856 276° West 229 264 16,200 49 Climbing Denver Center
Thu 12:34:22 AM 43.9647 -101.7733 279° West 229 264 16,200 -61 Level Denver Center
Thu 12:35:00 AM 43.9758 -101.8344 284° West 231 266 16,100 -103 Descending Denver Center
Thu 12:35:20 AM 43.9803 -101.8628 282° West 231 266 16,100  Level Denver Center
Thu 12:35:23 AM 43.9750 -101.8600 159° South 229 264 16,100 -98 Level Denver Center
Thu 12:36:21 AM 43.9856 -101.9497 279° West 234 269 16,000 -98 Descending Denver Center
Thu 12:36:24 AM 43.9828 -101.9517 207° Southwest 234 269 16,000 -207 Level Denver Center
Thu 12:37:19 AM 43.9894 -102.0431 276° West 236 272 15,800 -197 Descending Denver Center
Thu 12:37:25 AM 43.9872 -102.0425 170° South 236 272 15,800 -484 Level Denver Center
Thu 12:38:21 AM 43.9947 -102.1300 277° West 236 272 15,300 -600 Descending Denver Center
Thu 12:38:25 AM 43.9939 -102.1347 256° West 237 273 15,200 -1,300 Descending Denver Center
Thu 12:39:21 AM 44.0003 -102.2347 275° West 256 295 14,000 -1,161 Descending Denver Center
Thu 12:39:27 AM 43.9967 -102.2322 154° Southeast 248 285 14,000 -1,180 Level Denver Center
Thu 12:40:22 AM 43.9878 -102.3328 263° West 276 318 12,800 -1,180 Descending Denver Center
Thu 12:40:28 AM 43.9892 -102.3372 293° West 273 314 12,800 -1,082 Level Denver Center
Thu 12:41:23 AM 43.9653 -102.4367 252° West 275 316 11,700 -1,082 Descending Denver Center
Thu 12:41:29 AM 43.9675 -102.4372 350° North 273 314 11,700 -1,180 Level Denver Center
Thu 12:42:24 AM 43.9428 -102.5406 252° West 268 308 10,500 -1,082 Descending Denver Center
Thu 12:42:30 AM 43.9450 -102.5375 45° Northeast 273 314 10,600 -1,400 Climbing Denver Center
Thu 12:43:24 AM 43.9256 -102.6369 255° West 267 307 9,100 -1,475 Descending Denver Center
Thu 12:43:31 AM 43.9281 -102.6367 North 268 308 9,100 -1,300 Level Denver Center
Thu 12:44:24 AM 43.9158 -102.7428 261° West 269 310 7,800 -1,322 Descending Denver Center
Thu 12:44:30 AM 43.9169 -102.7469 290° West 264 304 7,800 -1,200 Level Denver Center
Thu 12:45:24 AM 43.9322 -102.8381 283° West 262 302 6,600 -190 Descending Denver Center
Thu 12:45:33 AM 43.9275 -102.8356 159° South 262 302 7,600 -1,082 Climbing Denver Center
Thu 12:46:25 AM 43.9556 -102.9375 291° West 255 293 5,500 -1,699 Descending Denver Center
Thu 12:47:26 AM 43.9828 -103.0064 299° West 197 227 4,400 -984 Descending Denver Center
Thu 12:48:27 AM 44.0197 -103.0400 327° Northwest 127 146 3,500 -885 Descending Denver Center

Login

Don't have an account? Register now (free) for customized features, flight alerts, and more!